YPPD/PHE METAR and TAF weather

Enter ICAO airport designator
Station Type Date Time Source
YPPD METAR 2022/01/29 01:30 UTC NOAA

YPPD 290130Z AUTO 23011KT 9999 // NCD 30/21 Q1006 RF00.0/000.0


Station Type Date Time Source
YPPD Decoded METAR 2022/01/29 01:30 UTC NOAA

Port Hedland Pardoo, Australia (YPPD) 20-06S 119-34E 10M
Jan 28, 2022 - 08:30 PM EST / 2022.01.29 0130 UTC
Wind: from the SW (230 degrees) at 13 MPH (11 KT):0
Visibility: greater than 7 mile(s):0
Temperature: 86 F (30 C)
Dew Point: 69 F (21 C)
Relative Humidity: 58%
Pressure (altimeter): 29.71 in. Hg (1006 hPa)
ob: YPPD 290130Z AUTO 23011KT 9999 // NCD 30/21 Q1006 RF00.0/000.0
cycle: 1

Station Type Date Time Source
YPPD TAF 2022/01/28 18:37 UTC NOAA

TAF YPPD 281707Z 2818/2918 26012KT 9999 SCT020
FM290400 30018KT CAVOK
FM291300 25012KT CAVOK

Example: see airport list